createdAt,value
2016-12-30T00:00:16.957Z,0
2016-12-30T00:00:46.998Z,0
2016-12-30T00:01:17.031Z,0
2016-12-30T00:01:47.078Z,0
2016-12-30T00:02:17.135Z,0
2016-12-30T00:02:47.155Z,0
2016-12-30T00:03:17.192Z,0
2016-12-30T00:03:47.230Z,0
2016-12-30T00:04:17.268Z,0
2016-12-30T00:04:47.303Z,0
2016-12-30T00:05:17.344Z,0
2016-12-30T00:05:47.386Z,0
2016-12-30T00:06:17.425Z,0
2016-12-30T00:06:47.467Z,0
2016-12-30T00:07:17.501Z,0
2016-12-30T00:07:47.570Z,0
2016-12-30T00:08:17.580Z,0
2016-12-30T00:08:47.632Z,0
2016-12-30T00:09:17.690Z,0
2016-12-30T00:09:47.874Z,0
2016-12-30T00:10:17.744Z,0
2016-12-30T00:10:47.773Z,0
2016-12-30T00:11:17.812Z,0
2016-12-30T00:11:47.864Z,0
2016-12-30T00:12:17.895Z,0
2016-12-30T00:12:47.931Z,0
2016-12-30T00:13:17.976Z,0
2016-12-30T00:13:48.012Z,0
2016-12-30T00:14:18.045Z,0
2016-12-30T00:14:48.092Z,0
2016-12-30T00:15:18.157Z,0
2016-12-30T00:15:48.172Z,0
2016-12-30T00:16:18.209Z,0
2016-12-30T00:16:48.242Z,0
2016-12-30T00:17:18.280Z,0
2016-12-30T00:17:48.327Z,0
2016-12-30T00:18:18.361Z,0
2016-12-30T00:18:48.400Z,0
2016-12-30T00:19:18.444Z,0
2016-12-30T00:19:48.487Z,0
2016-12-30T00:20:18.520Z,0
2016-12-30T00:20:48.563Z,0
2016-12-30T00:21:18.602Z,0
2016-12-30T00:21:48.644Z,0
2016-12-30T00:22:18.685Z,0
2016-12-30T00:22:48.712Z,0
2016-12-30T00:23:18.749Z,0
2016-12-30T00:23:48.797Z,0
2016-12-30T00:24:18.828Z,0
2016-12-30T00:24:48.877Z,0
2016-12-30T00:25:18.914Z,0
2016-12-30T00:25:48.969Z,0
2016-12-30T00:26:18.995Z,0
2016-12-30T00:26:49.061Z,0
2016-12-30T00:27:19.060Z,0
2016-12-30T00:27:49.106Z,0
2016-12-30T00:28:19.156Z,0
2016-12-30T00:28:49.186Z,0
2016-12-30T00:29:19.227Z,0
2016-12-30T00:29:49.287Z,0
2016-12-30T00:30:19.298Z,0
2016-12-30T00:30:49.334Z,0
2016-12-30T00:31:19.379Z,0
2016-12-30T00:31:49.430Z,0
2016-12-30T00:32:19.464Z,0
2016-12-30T00:32:49.513Z,0
2016-12-30T00:33:19.540Z,0
2016-12-30T00:33:49.576Z,0
2016-12-30T00:34:19.613Z,0
2016-12-30T00:34:49.651Z,0
2016-12-30T00:35:19.695Z,0
2016-12-30T00:35:49.739Z,0
2016-12-30T00:36:19.777Z,0
2016-12-30T00:36:49.814Z,0
2016-12-30T00:37:19.848Z,0
2016-12-30T00:37:49.891Z,0
2016-12-30T00:38:19.935Z,0
2016-12-30T00:38:49.974Z,0
2016-12-30T00:39:20.014Z,0
2016-12-30T00:39:50.043Z,0
2016-12-30T00:40:20.087Z,0
2016-12-30T00:40:50.124Z,0
2016-12-30T00:41:20.176Z,0
2016-12-30T00:41:50.203Z,0
2016-12-30T00:42:20.238Z,0
2016-12-30T00:42:50.285Z,0
2016-12-30T00:43:20.321Z,0
2016-12-30T00:43:50.361Z,0
2016-12-30T00:44:20.399Z,0
2016-12-30T00:44:50.441Z,0
2016-12-30T00:45:20.476Z,0
2016-12-30T00:45:50.519Z,0
2016-12-30T00:46:20.558Z,0
2016-12-30T00:46:50.595Z,0
2016-12-30T00:47:20.633Z,0
2016-12-30T00:47:50.674Z,0
2016-12-30T00:48:20.714Z,0
2016-12-30T00:48:50.755Z,0
2016-12-30T00:49:20.793Z,0
2016-12-30T00:49:50.828Z,0
2016-12-30T00:50:20.874Z,0
2016-12-30T00:50:50.915Z,0
2016-12-30T00:51:20.945Z,0
2016-12-30T00:51:50.996Z,0
2016-12-30T00:52:21.025Z,0
2016-12-30T00:52:51.067Z,0
2016-12-30T00:53:21.102Z,0
2016-12-30T00:53:51.172Z,0
2016-12-30T00:54:21.178Z,0
2016-12-30T00:54:51.218Z,0
2016-12-30T00:55:21.261Z,0
2016-12-30T00:55:51.297Z,0
2016-12-30T00:56:21.344Z,0
2016-12-30T00:56:51.379Z,0
2016-12-30T00:57:21.418Z,0
2016-12-30T00:57:51.462Z,0
2016-12-30T00:58:21.495Z,0
2016-12-30T00:58:51.533Z,0
2016-12-30T00:59:21.574Z,0
2016-12-30T00:59:51.625Z,0
2016-12-30T01:00:21.682Z,0
2016-12-30T01:00:51.696Z,0
2016-12-30T01:01:21.734Z,0
2016-12-30T01:01:51.769Z,0
2016-12-30T01:02:21.809Z,0
2016-12-30T01:02:51.846Z,0
2016-12-30T01:03:21.891Z,0
2016-12-30T01:03:51.925Z,0
2016-12-30T01:04:21.962Z,0
2016-12-30T01:04:52.023Z,0
2016-12-30T01:05:22.054Z,0
2016-12-30T01:05:52.081Z,0
2016-12-30T01:06:22.128Z,0
2016-12-30T01:06:52.173Z,0
2016-12-30T01:07:22.201Z,0
2016-12-30T01:07:52.241Z,0
2016-12-30T01:08:22.293Z,0
2016-12-30T01:08:52.327Z,0
2016-12-30T01:09:22.356Z,0
2016-12-30T01:09:52.395Z,0
2016-12-30T01:10:22.433Z,0
2016-12-30T01:10:52.476Z,0
2016-12-30T01:11:22.511Z,0
2016-12-30T01:11:52.552Z,0
2016-12-30T01:12:22.594Z,0
2016-12-30T01:12:52.627Z,0
2016-12-30T01:13:22.684Z,0
2016-12-30T01:13:52.719Z,0
2016-12-30T01:14:22.746Z,0
2016-12-30T01:14:52.790Z,0
2016-12-30T01:15:22.824Z,0
2016-12-30T01:15:52.866Z,0
2016-12-30T01:16:22.915Z,0
2016-12-30T01:16:52.945Z,0
2016-12-30T01:17:22.984Z,0
2016-12-30T01:17:53.022Z,0
2016-12-30T01:18:23.067Z,0
2016-12-30T01:18:53.101Z,0
2016-12-30T01:19:23.144Z,0
2016-12-30T01:19:53.184Z,0
2016-12-30T01:20:23.217Z,0
2016-12-30T01:20:53.262Z,0
2016-12-30T01:21:23.295Z,0
2016-12-30T01:21:53.336Z,0
2016-12-30T01:22:23.386Z,0
2016-12-30T01:22:53.423Z,0
2016-12-30T01:23:23.450Z,0
2016-12-30T01:23:53.490Z,0
2016-12-30T01:24:23.535Z,0
2016-12-30T01:24:53.573Z,0
2016-12-30T01:25:23.605Z,0
2016-12-30T01:25:53.650Z,0
2016-12-30T01:26:23.709Z,0
2016-12-30T01:26:53.729Z,0
2016-12-30T01:27:23.771Z,0
2016-12-30T01:27:53.804Z,0
2016-12-30T01:28:23.850Z,0
2016-12-30T01:28:53.884Z,0
2016-12-30T01:29:23.921Z,0
2016-12-30T01:29:53.966Z,0
2016-12-30T01:30:24.003Z,0
2016-12-30T01:30:54.042Z,0
2016-12-30T01:31:24.078Z,0
2016-12-30T01:31:54.115Z,0
2016-12-30T01:32:24.169Z,0
2016-12-30T01:32:54.204Z,0
2016-12-30T01:33:24.236Z,0
2016-12-30T01:33:54.271Z,0
2016-12-30T01:34:24.314Z,0
2016-12-30T01:34:54.358Z,0
2016-12-30T01:35:24.393Z,0
2016-12-30T01:35:54.437Z,0
2016-12-30T01:36:24.472Z,0
2016-12-30T01:36:54.509Z,0
2016-12-30T01:37:24.556Z,0
2016-12-30T01:37:54.593Z,0
2016-12-30T01:38:24.627Z,0
2016-12-30T01:38:54.666Z,0
2016-12-30T01:39:24.712Z,0
2016-12-30T01:39:54.751Z,0
2016-12-30T01:40:24.813Z,0
2016-12-30T01:40:54.818Z,0
2016-12-30T01:41:24.870Z,0
2016-12-30T01:41:54.906Z,0
2016-12-30T01:42:24.939Z,0
2016-12-30T01:42:54.982Z,0
2016-12-30T01:43:25.028Z,0
2016-12-30T01:43:55.060Z,0
2016-12-30T01:44:25.111Z,0
2016-12-30T01:44:55.286Z,0
2016-12-30T01:45:25.199Z,0
2016-12-30T01:45:55.213Z,0
2016-12-30T01:46:25.279Z,0
2016-12-30T01:46:55.291Z,0
2016-12-30T01:47:25.345Z,0
2016-12-30T01:47:55.383Z,0
2016-12-30T01:48:25.559Z,0
2016-12-30T01:48:55.446Z,0
2016-12-30T01:49:25.490Z,0
2016-12-30T01:49:55.533Z,0
2016-12-30T01:50:25.565Z,0
2016-12-30T01:50:55.601Z,0
2016-12-30T01:51:25.641Z,0
2016-12-30T01:51:55.743Z,0
2016-12-30T01:52:25.721Z,0
2016-12-30T01:52:55.762Z,0
2016-12-30T01:53:25.805Z,0
2016-12-30T01:53:55.846Z,0
2016-12-30T01:54:25.888Z,0
2016-12-30T01:54:55.947Z,0
2016-12-30T01:55:26.261Z,0
2016-12-30T01:55:55.998Z,0
2016-12-30T01:56:26.045Z,0
2016-12-30T01:56:56.083Z,0
2016-12-30T01:57:26.113Z,0
2016-12-30T01:57:56.161Z,0
2016-12-30T01:58:26.199Z,0
2016-12-30T01:58:56.230Z,0
2016-12-30T01:59:26.270Z,0
2016-12-30T01:59:56.309Z,0
2016-12-30T02:00:26.347Z,0
2016-12-30T02:00:56.397Z,0
2016-12-30T02:01:26.437Z,0
2016-12-30T02:01:56.466Z,0
2016-12-30T02:02:26.504Z,0
2016-12-30T02:02:56.555Z,0
2016-12-30T02:03:26.584Z,0
2016-12-30T02:03:56.616Z,0
2016-12-30T02:04:26.662Z,0
2016-12-30T02:04:56.705Z,0
2016-12-30T02:05:26.738Z,0
2016-12-30T02:05:56.782Z,0
2016-12-30T02:06:26.818Z,0
2016-12-30T02:06:56.855Z,0
2016-12-30T02:07:26.895Z,0
2016-12-30T02:07:56.936Z,0
2016-12-30T02:08:26.974Z,0
2016-12-30T02:08:57.019Z,0
2016-12-30T02:09:27.056Z,0
2016-12-30T02:09:57.091Z,0
2016-12-30T02:10:27.125Z,0
2016-12-30T02:10:57.187Z,0
2016-12-30T02:11:27.214Z,0
2016-12-30T02:11:57.249Z,0
2016-12-30T02:12:27.436Z,0
2016-12-30T02:12:57.344Z,0
2016-12-30T02:13:27.366Z,0
2016-12-30T02:13:57.410Z,0
2016-12-30T02:14:27.403Z,0
2016-12-30T02:14:57.484Z,0
2016-12-30T02:15:27.525Z,0
2016-12-30T02:15:57.563Z,0
2016-12-30T02:16:27.595Z,0
2016-12-30T02:16:57.650Z,0
2016-12-30T02:17:27.691Z,0
2016-12-30T02:17:57.720Z,0
2016-12-30T02:18:27.757Z,0
2016-12-30T02:18:57.806Z,0
2016-12-30T02:19:27.839Z,0
2016-12-30T02:19:57.877Z,0
2016-12-30T02:20:27.921Z,0
2016-12-30T02:20:57.959Z,0
2016-12-30T02:21:27.995Z,0
2016-12-30T02:21:58.039Z,0
2016-12-30T02:22:28.070Z,0
2016-12-30T02:22:58.116Z,0
2016-12-30T02:23:28.149Z,0
2016-12-30T02:23:58.189Z,0
2016-12-30T02:24:28.225Z,0
2016-12-30T02:24:58.270Z,0
2016-12-30T02:25:28.322Z,0
2016-12-30T02:25:58.394Z,0
2016-12-30T02:26:28.382Z,0
2016-12-30T02:26:58.432Z,0
2016-12-30T02:27:28.460Z,0
2016-12-30T02:27:58.509Z,0
2016-12-30T02:28:28.542Z,0
2016-12-30T02:28:58.590Z,0
2016-12-30T02:29:28.651Z,0
2016-12-30T02:29:58.663Z,0
2016-12-30T02:30:28.698Z,0
2016-12-30T02:30:58.737Z,0
2016-12-30T02:31:28.774Z,0
2016-12-30T02:31:58.824Z,0
2016-12-30T02:32:28.849Z,0
2016-12-30T02:32:58.891Z,0
2016-12-30T02:33:28.934Z,0
2016-12-30T02:33:58.972Z,0
2016-12-30T02:34:29.019Z,0
2016-12-30T02:34:59.052Z,0
2016-12-30T02:35:29.092Z,0
2016-12-30T02:35:59.127Z,0
2016-12-30T02:36:29.166Z,0
2016-12-30T02:36:59.204Z,0
2016-12-30T02:37:29.248Z,0
2016-12-30T02:37:59.317Z,0
2016-12-30T02:38:29.317Z,0
2016-12-30T02:38:59.375Z,0
2016-12-30T02:39:29.411Z,0
2016-12-30T02:39:59.438Z,0
2016-12-30T02:40:29.478Z,0
2016-12-30T02:40:59.519Z,0
2016-12-30T02:41:29.585Z,0
2016-12-30T02:41:59.596Z,0
2016-12-30T02:42:29.645Z,0
2016-12-30T02:42:59.673Z,0
2016-12-30T02:43:29.718Z,0
2016-12-30T02:43:59.755Z,0
2016-12-30T02:44:29.816Z,0
2016-12-30T02:44:59.829Z,0
2016-12-30T02:45:29.872Z,0
2016-12-30T02:45:59.912Z,0
2016-12-30T02:46:29.943Z,0
2016-12-30T02:46:59.989Z,0
2016-12-30T02:47:30.029Z,0
2016-12-30T02:48:00.065Z,0
2016-12-30T02:48:30.104Z,0
2016-12-30T02:49:00.148Z,0
2016-12-30T02:49:30.181Z,0
2016-12-30T02:50:00.229Z,0
2016-12-30T02:50:30.274Z,0
2016-12-30T02:51:00.302Z,0
2016-12-30T02:51:30.338Z,0
2016-12-30T02:52:00.379Z,0
2016-12-30T02:52:30.420Z,0
2016-12-30T02:53:00.469Z,0
2016-12-30T02:53:30.495Z,0
2016-12-30T02:54:00.545Z,0
2016-12-30T02:54:30.575Z,0
2016-12-30T02:55:00.626Z,0
2016-12-30T02:55:30.664Z,0
2016-12-30T02:56:00.696Z,0
2016-12-30T02:56:30.733Z,0
2016-12-30T02:57:00.762Z,0
2016-12-30T02:57:30.813Z,0
2016-12-30T02:58:00.847Z,0
2016-12-30T02:58:30.887Z,0
2016-12-30T02:59:00.927Z,0
2016-12-30T02:59:30.972Z,0
2016-12-30T03:00:01.004Z,0
2016-12-30T03:00:31.048Z,0
2016-12-30T03:01:01.084Z,0
2016-12-30T03:01:31.120Z,0
2016-12-30T03:02:01.160Z,0
2016-12-30T03:02:31.206Z,0
2016-12-30T03:03:01.243Z,0
2016-12-30T03:03:31.276Z,0
2016-12-30T03:04:01.345Z,0
2016-12-30T03:04:31.361Z,0
2016-12-30T03:05:01.403Z,0
2016-12-30T03:05:31.436Z,0
2016-12-30T03:06:01.475Z,0
2016-12-30T03:06:31.512Z,0
2016-12-30T03:07:01.576Z,0
2016-12-30T03:07:31.588Z,0
2016-12-30T03:08:01.631Z,0
2016-12-30T03:08:31.670Z,0
2016-12-30T03:09:01.711Z,0
2016-12-30T03:09:31.747Z,0
2016-12-30T03:10:01.941Z,0
2016-12-30T03:10:31.823Z,0
2016-12-30T03:11:02.127Z,0
2016-12-30T03:11:31.907Z,0
2016-12-30T03:12:01.948Z,0
2016-12-30T03:12:31.979Z,0
2016-12-30T03:13:02.025Z,0
2016-12-30T03:13:32.057Z,0
2016-12-30T03:14:02.450Z,0
2016-12-30T03:14:32.156Z,0
2016-12-30T03:15:02.278Z,0
2016-12-30T03:15:32.215Z,0
2016-12-30T03:16:02.503Z,0
2016-12-30T03:16:32.296Z,0
2016-12-30T03:17:02.493Z,0
2016-12-30T03:17:32.370Z,0
2016-12-30T03:18:02.418Z,0
2016-12-30T03:18:32.451Z,0
2016-12-30T03:19:32.530Z,0
2016-12-30T03:20:02.572Z,0
2016-12-30T03:20:32.640Z,0
2016-12-30T03:21:02.649Z,0
2016-12-30T03:21:32.691Z,0
2016-12-30T03:22:02.759Z,0
2016-12-30T03:22:32.762Z,0
2016-12-30T03:23:03.053Z,0
2016-12-30T03:23:32.831Z,0
2016-12-30T03:24:03.059Z,0
2016-12-30T03:24:32.916Z,0
2016-12-30T03:25:02.958Z,0
2016-12-30T03:25:33.012Z,0
2016-12-30T03:26:03.138Z,0
2016-12-30T03:26:33.093Z,0
2016-12-30T03:27:03.271Z,0
2016-12-30T03:27:33.159Z,0
2016-12-30T03:28:03.343Z,0
2016-12-30T03:28:33.232Z,0
2016-12-30T03:29:03.320Z,0
2016-12-30T03:29:33.314Z,0
2016-12-30T03:30:03.352Z,0
2016-12-30T03:30:33.383Z,0
2016-12-30T03:31:03.624Z,0
2016-12-30T03:31:33.463Z,0
2016-12-30T03:32:03.807Z,0
2016-12-30T03:32:33.583Z,0
2016-12-30T03:33:03.934Z,0
2016-12-30T03:33:33.626Z,0
2016-12-30T03:34:03.867Z,0
2016-12-30T03:34:33.712Z,0
2016-12-30T03:35:03.893Z,0
2016-12-30T03:35:33.781Z,0
2016-12-30T03:36:03.870Z,0
2016-12-30T03:36:33.860Z,0
2016-12-30T03:37:03.901Z,0
2016-12-30T03:37:33.943Z,0
2016-12-30T03:38:03.971Z,0
2016-12-30T03:38:34.016Z,0
2016-12-30T03:39:04.211Z,0
2016-12-30T03:39:34.093Z,0
2016-12-30T03:40:04.133Z,0
2016-12-30T03:40:34.166Z,0
2016-12-30T03:41:04.512Z,0
2016-12-30T03:41:34.250Z,0
2016-12-30T03:42:04.284Z,0
2016-12-30T03:42:34.372Z,0
2016-12-30T03:43:04.373Z,0
2016-12-30T03:43:34.403Z,0
2016-12-30T03:44:04.437Z,0
2016-12-30T03:44:34.488Z,0
2016-12-30T03:45:04.519Z,0
2016-12-30T03:45:34.563Z,0
2016-12-30T03:46:04.599Z,0
2016-12-30T03:46:34.639Z,0
2016-12-30T03:47:04.689Z,0
2016-12-30T03:47:34.717Z,0
2016-12-30T03:48:04.758Z,0
2016-12-30T03:48:34.795Z,0
2016-12-30T03:49:04.840Z,0
2016-12-30T03:49:34.873Z,0
2016-12-30T03:50:04.919Z,0
2016-12-30T03:50:34.949Z,0
2016-12-30T03:51:04.989Z,0
2016-12-30T03:51:35.036Z,0
2016-12-30T03:52:05.071Z,0
2016-12-30T03:52:35.109Z,0
2016-12-30T03:53:05.154Z,0
2016-12-30T03:53:35.198Z,0
2016-12-30T03:54:05.225Z,0
2016-12-30T03:54:35.270Z,0
2016-12-30T03:55:05.453Z,0
2016-12-30T03:55:35.345Z,0
2016-12-30T03:56:05.383Z,0
2016-12-30T03:56:35.433Z,0
2016-12-30T03:57:05.457Z,0
2016-12-30T03:57:35.498Z,0
2016-12-30T03:58:05.539Z,0
2016-12-30T03:58:35.581Z,0
2016-12-30T03:59:05.619Z,0
2016-12-30T03:59:35.658Z,0
2016-12-30T04:00:05.704Z,0
2016-12-30T04:00:35.732Z,0
2016-12-30T04:01:05.772Z,0
2016-12-30T04:01:35.823Z,0
2016-12-30T04:02:05.849Z,0
2016-12-30T04:02:35.897Z,0
2016-12-30T04:03:05.933Z,0
2016-12-30T04:03:35.972Z,0
2016-12-30T04:04:06.005Z,0
2016-12-30T04:04:36.057Z,0
2016-12-30T04:05:06.091Z,0
2016-12-30T04:05:36.130Z,0
2016-12-30T04:06:06.166Z,0
2016-12-30T04:06:36.204Z,0
2016-12-30T04:07:06.244Z,0
2016-12-30T04:07:36.281Z,0
2016-12-30T04:08:06.319Z,0
2016-12-30T04:08:36.363Z,0
2016-12-30T04:09:06.397Z,0
2016-12-30T04:09:36.440Z,0
2016-12-30T04:10:06.498Z,0
2016-12-30T04:10:36.514Z,0
2016-12-30T04:11:06.556Z,0
2016-12-30T04:11:36.590Z,0
2016-12-30T04:12:06.632Z,0
2016-12-30T04:12:36.675Z,0
2016-12-30T04:13:06.721Z,0
2016-12-30T04:13:36.750Z,0
2016-12-30T04:14:06.792Z,0
2016-12-30T04:14:36.834Z,0
2016-12-30T04:15:06.866Z,0
2016-12-30T04:15:36.908Z,0
2016-12-30T04:16:06.953Z,0
2016-12-30T04:16:36.989Z,0
2016-12-30T04:17:07.025Z,0
2016-12-30T04:17:37.069Z,0
2016-12-30T04:18:07.129Z,0
2016-12-30T04:18:37.145Z,0
2016-12-30T04:19:07.179Z,0
2016-12-30T04:19:37.220Z,0
2016-12-30T04:20:07.264Z,0
2016-12-30T04:20:37.311Z,0
2016-12-30T04:21:07.342Z,0
2016-12-30T04:21:37.380Z,0
2016-12-30T04:22:07.420Z,0
2016-12-30T04:22:37.458Z,0
2016-12-30T04:23:07.502Z,0
2016-12-30T04:23:37.527Z,0
2016-12-30T04:24:07.589Z,0
2016-12-30T04:24:37.621Z,0
2016-12-30T04:25:07.680Z,0
2016-12-30T04:25:37.688Z,0
2016-12-30T04:26:07.729Z,0
2016-12-30T04:26:37.765Z,0
2016-12-30T04:27:07.809Z,0
2016-12-30T04:27:37.853Z,0
2016-12-30T04:28:07.881Z,0
2016-12-30T04:28:37.975Z,0
2016-12-30T04:29:08.114Z,0
2016-12-30T04:29:38.001Z,0
2016-12-30T04:30:08.043Z,0
2016-12-30T04:30:38.082Z,0
2016-12-30T04:31:08.122Z,0
2016-12-30T04:31:38.162Z,0
2016-12-30T04:32:08.200Z,0
2016-12-30T04:32:38.238Z,0
2016-12-30T04:33:08.269Z,0
2016-12-30T04:33:38.313Z,0
2016-12-30T04:34:08.355Z,0
2016-12-30T04:34:38.409Z,0
2016-12-30T04:35:08.459Z,0
2016-12-30T04:35:38.467Z,0
2016-12-30T04:36:08.508Z,0
2016-12-30T04:36:38.548Z,0
2016-12-30T04:37:08.592Z,0
2016-12-30T04:37:38.632Z,0
2016-12-30T04:38:08.668Z,0
2016-12-30T04:38:38.712Z,0
2016-12-30T04:39:08.750Z,0
2016-12-30T04:39:38.787Z,0
2016-12-30T04:40:08.822Z,0
2016-12-30T04:40:38.857Z,0
2016-12-30T04:41:08.905Z,0
2016-12-30T04:41:38.940Z,0
2016-12-30T04:42:08.973Z,0
2016-12-30T04:42:39.019Z,0
2016-12-30T04:43:09.060Z,0
2016-12-30T04:43:39.100Z,0
2016-12-30T04:44:09.140Z,0
2016-12-30T04:44:39.177Z,0
2016-12-30T04:45:09.208Z,0
2016-12-30T04:45:39.254Z,0
2016-12-30T04:46:09.296Z,0
2016-12-30T04:46:39.330Z,0
2016-12-30T04:47:09.385Z,0
2016-12-30T04:47:39.423Z,0
2016-12-30T04:48:09.454Z,0
2016-12-30T04:48:39.492Z,0
2016-12-30T04:49:09.531Z,0
2016-12-30T04:49:39.560Z,0
2016-12-30T04:50:09.595Z,0
2016-12-30T04:50:39.650Z,0
2016-12-30T04:51:09.690Z,0
2016-12-30T04:51:39.722Z,0
2016-12-30T04:52:09.761Z,0
2016-12-30T04:52:39.827Z,0
2016-12-30T04:53:09.840Z,0
2016-12-30T04:53:39.873Z,0
2016-12-30T04:54:09.914Z,0
2016-12-30T04:54:39.951Z,0
2016-12-30T04:55:10.005Z,0
2016-12-30T04:55:40.041Z,0
2016-12-30T04:56:10.077Z,0
2016-12-30T04:56:40.115Z,0
2016-12-30T04:57:10.150Z,0
2016-12-30T04:57:40.187Z,0
2016-12-30T04:58:10.229Z,0
2016-12-30T04:58:40.267Z,0
2016-12-30T04:59:10.302Z,0
2016-12-30T04:59:40.353Z,0
2016-12-30T05:00:10.385Z,0
2016-12-30T05:00:40.417Z,0
2016-12-30T05:01:10.466Z,0
2016-12-30T05:01:40.507Z,0
2016-12-30T05:02:10.539Z,0
2016-12-30T05:02:40.582Z,0
2016-12-30T05:03:10.619Z,0
2016-12-30T05:03:40.658Z,0
2016-12-30T05:04:10.696Z,0
2016-12-30T05:04:40.736Z,0
2016-12-30T05:05:10.779Z,0
2016-12-30T05:05:40.815Z,0
2016-12-30T05:06:10.852Z,0
2016-12-30T05:06:40.897Z,0
2016-12-30T05:07:10.933Z,0
2016-12-30T05:07:40.970Z,0
2016-12-30T05:08:11.023Z,0
2016-12-30T05:08:41.053Z,0
2016-12-30T05:09:11.089Z,0
2016-12-30T05:09:41.131Z,0
2016-12-30T05:10:11.168Z,0
2016-12-30T05:10:41.205Z,0
2016-12-30T05:11:11.239Z,0
2016-12-30T05:11:41.311Z,0
2016-12-30T05:12:11.319Z,0
2016-12-30T05:12:41.365Z,0
2016-12-30T05:13:11.413Z,0
2016-12-30T05:13:41.441Z,0
2016-12-30T05:14:11.480Z,0
2016-12-30T05:14:41.670Z,0
2016-12-30T05:15:11.553Z,0
2016-12-30T05:15:41.599Z,0
2016-12-30T05:16:11.629Z,0
2016-12-30T05:16:41.676Z,0
2016-12-30T05:17:11.717Z,0
2016-12-30T05:17:41.756Z,0
2016-12-30T05:18:11.795Z,0
2016-12-30T05:18:41.839Z,0
2016-12-30T05:19:11.873Z,0
2016-12-30T05:19:41.920Z,0
2016-12-30T05:20:11.951Z,0
2016-12-30T05:20:41.984Z,0
2016-12-30T05:21:12.034Z,0
2016-12-30T05:21:42.057Z,0
2016-12-30T05:22:12.103Z,0
2016-12-30T05:22:42.143Z,0
2016-12-30T05:23:12.190Z,0
2016-12-30T05:23:42.221Z,0
2016-12-30T05:24:12.262Z,0
2016-12-30T05:24:42.295Z,0
2016-12-30T05:25:12.336Z,0
2016-12-30T05:25:42.389Z,0
2016-12-30T05:26:12.419Z,0
2016-12-30T05:26:42.455Z,0
2016-12-30T05:27:12.496Z,0
2016-12-30T05:27:42.535Z,0
2016-12-30T05:28:12.575Z,0
2016-12-30T05:28:42.613Z,0
2016-12-30T05:29:12.652Z,0
2016-12-30T05:29:42.688Z,0
2016-12-30T05:30:12.729Z,0
2016-12-30T05:30:42.771Z,0
2016-12-30T05:31:12.804Z,0
2016-12-30T05:31:42.855Z,0
2016-12-30T05:32:12.911Z,0
2016-12-30T05:32:42.924Z,0
2016-12-30T05:33:12.965Z,0
2016-12-30T05:33:43.006Z,0
2016-12-30T05:34:13.038Z,0
2016-12-30T05:34:43.082Z,0
2016-12-30T05:35:13.117Z,0
2016-12-30T05:35:43.156Z,0
2016-12-30T05:36:13.203Z,0
2016-12-30T05:36:43.237Z,0
2016-12-30T05:37:13.274Z,0
2016-12-30T05:37:43.319Z,0
2016-12-30T05:38:13.356Z,0
2016-12-30T05:38:43.387Z,0
2016-12-30T05:39:13.433Z,0
2016-12-30T05:39:43.484Z,0
2016-12-30T05:40:13.508Z,0
2016-12-30T05:40:43.548Z,0
2016-12-30T05:41:13.593Z,0
2016-12-30T05:41:43.634Z,0
2016-12-30T05:42:13.666Z,0
2016-12-30T05:42:43.706Z,0
2016-12-30T05:43:13.750Z,0
2016-12-30T05:43:43.780Z,0
2016-12-30T05:44:13.826Z,0
2016-12-30T05:44:43.862Z,0
2016-12-30T05:45:14.203Z,0
2016-12-30T05:45:43.936Z,0
2016-12-30T05:46:13.982Z,0
2016-12-30T05:46:44.021Z,0
2016-12-30T05:47:14.054Z,0
2016-12-30T05:47:44.094Z,0
2016-12-30T05:48:14.134Z,0
2016-12-30T05:48:44.172Z,0
2016-12-30T05:49:14.215Z,0
2016-12-30T05:49:44.250Z,0
2016-12-30T05:50:14.293Z,0
2016-12-30T05:50:44.334Z,0
2016-12-30T05:51:14.363Z,0
2016-12-30T05:51:44.406Z,0
2016-12-30T05:52:14.445Z,0
2016-12-30T05:52:44.496Z,0
2016-12-30T05:53:14.529Z,0
2016-12-30T05:53:44.569Z,0
2016-12-30T05:54:14.607Z,0
2016-12-30T05:54:44.648Z,0
2016-12-30T05:55:14.683Z,0
2016-12-30T05:55:44.714Z,0
2016-12-30T05:56:14.757Z,0
2016-12-30T05:56:44.804Z,0
2016-12-30T05:57:14.838Z,0
2016-12-30T05:57:44.876Z,0
2016-12-30T05:58:14.916Z,0
2016-12-30T05:58:44.957Z,0
2016-12-30T05:59:14.995Z,0
2016-12-30T05:59:45.035Z,0
2016-12-30T06:00:15.079Z,0
2016-12-30T06:00:45.467Z,0
2016-12-30T06:01:15.150Z,0
2016-12-30T06:01:45.192Z,0
2016-12-30T06:02:15.237Z,0
2016-12-30T06:02:45.265Z,0
2016-12-30T06:03:15.307Z,0
2016-12-30T06:03:45.346Z,0
2016-12-30T06:04:15.377Z,0
2016-12-30T06:04:45.425Z,0
2016-12-30T06:05:15.467Z,0
2016-12-30T06:05:45.506Z,0
2016-12-30T06:06:15.549Z,0
2016-12-30T06:06:45.579Z,0
2016-12-30T06:07:15.629Z,0
2016-12-30T06:07:45.655Z,0
2016-12-30T06:08:15.702Z,0
2016-12-30T06:08:45.738Z,0
2016-12-30T06:09:15.803Z,0
2016-12-30T06:09:45.809Z,0
2016-12-30T06:10:15.854Z,0
2016-12-30T06:10:45.891Z,0
2016-12-30T06:11:15.931Z,0
2016-12-30T06:11:45.966Z,0
2016-12-30T06:12:16.026Z,0
2016-12-30T06:12:46.048Z,0
2016-12-30T06:13:16.091Z,0
2016-12-30T06:13:46.135Z,0
2016-12-30T06:14:16.170Z,0
2016-12-30T06:14:46.203Z,0
2016-12-30T06:15:16.240Z,0
2016-12-30T06:15:46.283Z,0
2016-12-30T06:16:16.327Z,0
2016-12-30T06:16:46.363Z,0
2016-12-30T06:17:16.402Z,0
2016-12-30T06:17:46.435Z,0
2016-12-30T06:18:16.488Z,0
2016-12-30T06:18:46.520Z,0
2016-12-30T06:19:16.565Z,0
2016-12-30T06:19:46.598Z,0
2016-12-30T06:20:16.637Z,0
2016-12-30T06:20:46.671Z,0
2016-12-30T06:21:16.722Z,0
2016-12-30T06:21:46.757Z,0
2016-12-30T06:22:16.793Z,0
2016-12-30T06:22:46.828Z,0
2016-12-30T06:23:16.872Z,0
2016-12-30T06:23:46.908Z,0
2016-12-30T06:24:16.947Z,0
2016-12-30T06:24:46.983Z,0
2016-12-30T06:25:17.033Z,0
2016-12-30T06:25:47.068Z,0
2016-12-30T06:26:17.112Z,0
2016-12-30T06:26:47.147Z,0
2016-12-30T06:27:17.181Z,0
2016-12-30T06:27:47.222Z,0
2016-12-30T06:28:17.256Z,0
2016-12-30T06:28:47.303Z,0
2016-12-30T06:29:17.337Z,0
2016-12-30T06:29:47.377Z,0
2016-12-30T06:30:17.415Z,0
2016-12-30T06:30:47.454Z,0
2016-12-30T06:31:17.489Z,0
2016-12-30T06:31:47.544Z,0
2016-12-30T06:32:17.572Z,0
2016-12-30T06:32:47.612Z,0
2016-12-30T06:33:17.646Z,0
2016-12-30T06:33:47.691Z,0
2016-12-30T06:34:17.732Z,0
2016-12-30T06:34:47.770Z,0
2016-12-30T06:35:17.809Z,0
2016-12-30T06:35:47.849Z,0
2016-12-30T06:36:17.888Z,0
2016-12-30T06:36:47.924Z,0
2016-12-30T06:37:17.992Z,0
2016-12-30T06:37:48.004Z,0
2016-12-30T06:38:18.047Z,0
2016-12-30T06:38:48.085Z,0
2016-12-30T06:39:18.116Z,0
2016-12-30T06:39:48.155Z,0
2016-12-30T06:40:18.195Z,4
2016-12-30T06:40:48.247Z,4
2016-12-30T06:41:18.280Z,4
2016-12-30T06:41:48.311Z,4
2016-12-30T06:42:18.352Z,4
2016-12-30T06:42:48.392Z,4
2016-12-30T06:43:18.434Z,4
2016-12-30T06:43:48.469Z,0
2016-12-30T06:44:18.513Z,0
2016-12-30T06:44:48.556Z,4
2016-12-30T06:45:18.591Z,4
2016-12-30T06:45:48.627Z,4
2016-12-30T06:46:18.672Z,4
2016-12-30T06:46:48.711Z,4
2016-12-30T06:47:18.745Z,4
2016-12-30T06:47:48.789Z,8
2016-12-30T06:48:18.821Z,4
2016-12-30T06:48:48.864Z,4
2016-12-30T06:49:18.912Z,4
2016-12-30T06:49:48.943Z,8
2016-12-30T06:50:18.977Z,8
2016-12-30T06:50:49.023Z,8
2016-12-30T06:51:19.061Z,8
2016-12-30T06:51:49.102Z,8
2016-12-30T06:52:19.144Z,8
2016-12-30T06:52:49.167Z,8
2016-12-30T06:53:19.215Z,12
2016-12-30T06:53:49.252Z,12
2016-12-30T06:54:19.291Z,12
2016-12-30T06:54:49.330Z,12
2016-12-30T06:55:19.363Z,12
2016-12-30T06:55:49.400Z,16
2016-12-30T06:56:19.468Z,12
2016-12-30T06:56:49.495Z,16
2016-12-30T06:57:19.527Z,16
2016-12-30T06:57:49.561Z,20
2016-12-30T06:58:19.596Z,16
2016-12-30T06:58:49.648Z,20
2016-12-30T06:59:19.683Z,20
2016-12-30T06:59:49.723Z,20
2016-12-30T07:00:19.764Z,20
2016-12-30T07:00:49.800Z,24
2016-12-30T07:01:19.842Z,24
2016-12-30T07:01:49.886Z,24
2016-12-30T07:02:19.921Z,28
2016-12-30T07:02:49.957Z,24
2016-12-30T07:03:19.996Z,28
2016-12-30T07:03:50.035Z,32
2016-12-30T07:04:20.074Z,28
2016-12-30T07:04:50.136Z,32
2016-12-30T07:05:20.149Z,32
2016-12-30T07:05:50.199Z,36
2016-12-30T07:06:20.240Z,36
2016-12-30T07:06:50.269Z,36
2016-12-30T07:07:20.310Z,40
2016-12-30T07:07:50.348Z,40
2016-12-30T07:08:20.383Z,44
2016-12-30T07:08:50.413Z,44
2016-12-30T07:09:20.464Z,48
2016-12-30T07:09:50.504Z,48
2016-12-30T07:10:20.542Z,48
2016-12-30T07:10:50.576Z,48
2016-12-30T07:11:20.612Z,52
2016-12-30T07:11:50.656Z,52
2016-12-30T07:12:20.703Z,56
2016-12-30T07:12:50.737Z,56
2016-12-30T07:13:20.795Z,60
2016-12-30T07:13:50.804Z,60
2016-12-30T07:14:20.848Z,64
2016-12-30T07:14:50.890Z,64
2016-12-30T07:15:20.934Z,68
2016-12-30T07:15:50.961Z,68
2016-12-30T07:16:21.006Z,72
2016-12-30T07:16:51.039Z,72
2016-12-30T07:17:21.089Z,72
2016-12-30T07:17:51.114Z,76
2016-12-30T07:18:21.155Z,80
2016-12-30T07:18:51.199Z,84
2016-12-30T07:19:21.244Z,84
2016-12-30T07:19:51.275Z,84
2016-12-30T07:20:21.316Z,88
2016-12-30T07:20:51.347Z,88
2016-12-30T07:21:21.401Z,92
2016-12-30T07:21:51.421Z,92
2016-12-30T07:22:21.470Z,96
2016-12-30T07:22:51.530Z,96
2016-12-30T07:23:21.546Z,100